Terminal Aerodrome Forecast
Issued by NWS

Home | Current Version | Previous Version | Text Only | Print | Product List | Glossary On
Versions: 1 2 3 4 5 6 7 8 9 10 11 12 13 14 15
716
FTUS45 KTFX 251735
TAFLWT
TAF
KLWT 251735Z 2518/2618 23022G36KT P6SM BKN080
     FM260300 26019G32KT P6SM VCSH SCT040 BKN120
     FM260600 24015G25KT P6SM BKN080
     FM261600 28011KT P6SM SCT100=

USA.gov is the U.S. government's official web portal to all federal, state and local government web resources and services.